Westhampton, NY

10:04 AM EDT on August 29, 2014 (GMT -0400)
Newport Beach | Change Station
CLOSE
Current Station
Personal Weather Station
Location: East Moriches, NY
Elevation: 30 ft
Nearby Weather Stations

Elev 30 ft 40.81 °N, 72.73 °W | Updated 3 seconds ago

Clear
Clear
70.0 °F
Feels Like 70.0 °F
N
6.9
Wind Variable Wind from ENE
Gusts 8.0 mph

Today
High -- | Low -- °F
--% Chance of Precip.
Yesterday
High -- | Low -- °F
Precip. -- in
6:14 AM 7:27 PM
Waxing Crescent, 14% visible
Pressure 30.19 in
Visibility 10.0 miles
Clouds Clear
Dew Point 54 °F
Humidity 58%
Rainfall 0.00 in
Snow Depth Not available.
UV 5 out of 12
Pollen 8.20 out of 12
Air Quality Not available.
Flu Activity Not available.
METAR KFOK 291353Z 02013KT 10SM CLR 22/11 A3019 RMK AO2 SLP222 T02170106

More Conditions Fewer Conditions

Pressure 30.19 in
Visibility 10.0 miles
Clouds Clear
Dew Point 54 °F
Humidity 58%
Rainfall 0.00 in
Snow Depth Not available.
UV 5 out of 12
Pollen 8.20 out of 12
Air Quality Not available.
Flu Activity Not available.
METAR KFOK 291353Z 02013KT 10SM CLR 22/11 A3019 RMK AO2 SLP222 T02170106

More Conditions Fewer Conditions

10-Day Weather Forecast

Almanac

Astronomy

Aug. 29, 2014 Rise Set
Actual Time 6:14 AM EDT 7:27 PM EDT
Civil Twilight 5:46 AM EDT 7:56 PM EDT
Nautical Twilight 5:12 AM EDT 8:29 PM EDT
Astronomical Twilight 4:36 AM EDT 9:05 PM EDT
Moon 10:03 AM EDT 9:21 PM EDT
Length of Visible Light 14h 09m
Length of Day
13h 13m
Tomorrow will be 2m 34s shorter.
Waxing Crescent, 14% of the Moon is Illuminated
Today
Waxing Crescent
Sep 2
First Quarter
Sep 8
Full
Sep 15
Last Quarter
Sep 24
New

Today's Extremes

State Highs State Lows

Community

WunderPhotos

Upload Photos

1,748,240 photos uploaded!

Nearby

Air Quality

  Air Quality AQ Index Pollutant
Yesterday Good
OZONE
Friday Good
OZONE
Friday Good
PM2.5

Snow Depth

Station Depth Elevation
No new snow has been reported.

Earthquake Activity

City Distance Mag. Time & Date
No recent earthquake activity has been reported nearby.
Minimum magnitude displayed is 2.5.

Coastal Water Temperatures

Place Temperature
No Stations Reporting

Nearby Weather Stations